Topton, NC (28781)

12:01 PM EDT on April 25, 2015 (GMT -0400)
Noon Day Sun Ridge | | Change Station
CLOSE
Current Station
Personal Weather Station
Location: Topton, NC
Elevation: 3003 ft
Nearby Weather Stations

Elev 3003 ft 35.26 °N, 83.69 °W | Updated 3 seconds ago

Overcast
Overcast
60.6 °F
Feels Like 60.6 °F
N
0.0
Wind Variable Wind from NE
Gusts 0.0 mph

Today
High -- | Low -- °F
--% Chance of Precip.
Yesterday
High -- | Low -- °F
Precip. -- in
6:50 AM 8:15 PM
Waxing Crescent, 47% visible
Pressure 29.80 in
Visibility 10.0 miles
Clouds Scattered Clouds 2700 ft
Mostly Cloudy 3300 ft
Dew Point 60 °F
Humidity 98%
Rainfall 0.22 in
Snow Depth Not available.
UV 5 out of 12
Pollen 9.40 out of 12
Air Quality Not available.
Flu Activity Sporadic
METAR KRHP 251535Z AUTO 26006KT 10SM SCT027 BKN033 19/15 A2980 RMK AO2 T01860152

More Conditions Fewer Conditions

Pressure 29.80 in
Visibility 10.0 miles
Clouds Scattered Clouds 2700 ft
Mostly Cloudy 3300 ft
Dew Point 60 °F
Humidity 98%
Rainfall 0.22 in
Snow Depth Not available.
UV 5 out of 12
Pollen 9.40 out of 12
Air Quality Not available.
Flu Activity Sporadic
METAR KRHP 251535Z AUTO 26006KT 10SM SCT027 BKN033 19/15 A2980 RMK AO2 T01860152

More Conditions Fewer Conditions

10-Day Weather Forecast

Almanac

Astronomy

Apr. 25, 2015 Rise Set
Actual Time
Civil Twilight
Nautical Twilight
Astronomical Twilight
Moon
Length of Visible Light
Length of Day
Tomorrow will be .
, % of the Moon is Illuminated

Today's Extremes

State Highs State Lows

Community

WunderPhotos

Upload Photos

1,816,727 photos uploaded!

WunderBlogs® & News

Nearby

Air Quality

  Air Quality AQ Index Pollutant
Not available.

Snow Depth

Station Depth Elevation

Earthquake Activity

City Distance Mag. Time & Date
Minimum magnitude displayed is 2.5.

Coastal Water Temperatures

Place Temperature

Stations

Nearby Weather Stations

Station Location Temp. Windchill Dew Point Humidity Wind Precip. Elev Updated Type